Denhart, Iowa
Current Conditions -  °F | °C
As of 6:15 AM on Wednesday 28 Jan 2015 (Local Time) from KCAV Reporting Station
Unknown Precip Unknown Precip  
Wind Chill: 16°   Ceiling: 300
Heat Index: 30°   Visibility: 0.75mi
Dew Point: 30°   Wind: 24mph
Humidity: 100%   Direction: 140°SE
Pressure: 30.01"   Gusts: NA
Location:  42.9524°N, 93.7361°W
Report Text: KCAV 281215Z AUTO 14021KT 3/4SM -UP OVC003 M01/M01 A3001 RMK AO2
Loading
Personal Weather Stations






























Interactive Weather Map New forecast layout! Learn more

10-Day Weather Forecast

Advertisements
Track Severe Weather on mobile